Dalhem, Belgium
Current Conditions -  °F | °C
As of 10:20 PM on Thursday 18 Dec 2014 (Local Time) from EBLG Reporting Station
Broken Clouds Broken Clouds  
Wind Chill: 52°   Ceiling: 1300
Heat Index: 52°   Visibility: 5mi
Dew Point: 48°   Wind: 23mph
Humidity: 88%   Direction: 230°SW
Pressure: 29.97"   Gusts: NA
Location:  50.71°N, 5.73°E
Report Text: EBLG 182120Z 23020KT 8000 SCT009 BKN013 11/09 Q1015 TEMPO 24023G35KT
Loading
Personal Weather Stations






























Interactive Weather Map New forecast layout! Learn more

10-Day Weather Forecast

Advertisements
Track Severe Weather on mobile